Time;durP1;ratioP1;P1;durP2;ratioP2;P2;SDS_P1;SDS_P2;PMS_P1;PMS_P2;Temp;Humidity;BMP_temperature;BMP_pressure;BME280_temperature;BME280_humidity;BME280_pressure;Samples;Min_cycle;Max_cycle;Signal;HPM_P1;HPM_P2
2021/07/27 00:02:25;;;;;;;;;;;;;;;27.04;47.76;100756.38;5052075;28;99046;-85
2021/07/27 00:04:52;;;;;;;;;;;;;;;26.94;47.82;100743.78;5031695;28;96938;-85
2021/07/27 00:07:18;;;;;;;;;;;;;;;27.05;47.75;100741.78;5040990;28;97406;-84
2021/07/27 00:09:45;;;;;;;;;;;;;;;26.94;47.83;100743.78;5040350;28;100849;-85
2021/07/27 00:12:13;;;;;;;;;;;;;;;26.92;47.85;100732.22;5043126;28;100119;-86
2021/07/27 00:14:39;;;;;;;;;;;;;;;26.98;47.74;100731.59;5037304;28;97949;-86
2021/07/27 00:17:05;;;;;;;;;;;;;;;26.76;48.27;100734.81;5042324;28;96945;-86
2021/07/27 00:19:33;;;;;;;;;;;;;;;26.50;49.24;100739.34;5032094;28;98844;-86
2021/07/27 00:21:59;;;;;;;;;;;;;;;26.40;49.62;100742.16;5039104;28;98035;-86
2021/07/27 00:24:27;;;;;;;;;;;;;;;26.59;48.91;100736.53;5028494;28;97311;-87
2021/07/27 00:26:55;;;;;;;;;;;;;;;26.56;48.94;100745.00;5045667;28;96949;-86
2021/07/27 00:29:23;;;;;;;;;;;;;;;26.74;48.82;100730.56;5041574;28;99341;-86
2021/07/27 00:31:50;;;;;;;;;;;;;;;26.77;48.65;100732.97;5035111;28;101631;-86
2021/07/27 00:34:16;;;;;;;;;;;;;;;26.62;49.06;100738.09;5023220;28;96877;-86
2021/07/27 00:36:43;;;;;;;;;;;;;;;26.69;48.81;100724.75;5042224;28;96904;-86
2021/07/27 00:39:11;;;;;;;;;;;;;;;26.58;49.37;100728.59;5040046;28;98230;-86
2021/07/27 00:41:38;;;;;;;;;;;;;;;26.37;49.83;100728.94;5047598;28;100633;-86
2021/07/27 00:44:05;;;;;;;;;;;;;;;26.12;50.72;100729.69;5057713;27;95917;-86
2021/07/27 00:46:35;;;;;;;;;;;;;;;26.39;50.18;100731.47;5059556;27;96842;-86
2021/07/27 00:49:01;;;;;;;;;;;;;;;26.40;50.30;100722.31;5057941;27;99238;-86
2021/07/27 00:51:31;;;;;;;;;;;;;;;26.37;50.23;100736.19;5042953;27;97850;-86
2021/07/27 00:53:58;;;;;;;;;;;;;;;26.26;50.69;100731.00;5039718;28;96655;-86
2021/07/27 00:56:25;;;;;;;;;;;;;;;26.28;50.54;100727.16;5042713;28;96997;-86
2021/07/27 00:58:53;;;;;;;;;;;;;;;26.30;50.40;100722.44;5027450;28;99980;-86
2021/07/27 01:01:20;;;;;;;;;;;;;;;26.33;50.48;100722.09;5033594;28;98824;-86
2021/07/27 01:03:49;;;;;;;;;;;;;;;26.24;50.75;100723.06;5041042;28;96974;-86
2021/07/27 01:06:16;;;;;;;;;;;;;;;26.35;50.59;100720.09;5023190;28;96828;-85
2021/07/27 01:08:43;;;;;;;;;;;;;;;26.27;50.91;100724.59;5040274;28;100561;-86
2021/07/27 01:11:09;;;;;;;;;;;;;;;26.41;50.87;100716.75;5019579;28;97532;-86
2021/07/27 01:13:36;;;;;;;;;;;;;;;26.44;50.63;100723.72;5026919;28;96872;-86
2021/07/27 01:16:05;;;;;;;;;;;;;;;25.99;51.59;100713.78;5037441;28;96805;-87
2021/07/27 01:18:39;;;;;;;;;;;;;;;25.95;51.95;100715.13;5030139;28;101293;-86
2021/07/27 01:37:45;;;;;;;;;;;;;;;26.06;52.09;100717.59;5057935;27;96800;-84
2021/07/27 01:40:28;;;;;;;;;;;;;;;26.17;51.67;100730.91;5040199;28;98120;-85
2021/07/27 01:42:56;;;;;;;;;;;;;;;26.17;51.97;100730.91;5048949;28;99925;-84
2021/07/27 01:45:23;;;;;;;;;;;;;;;26.29;51.44;100722.59;5044786;27;96671;-84
2021/07/27 01:47:49;;;;;;;;;;;;;;;25.93;52.29;100719.81;5053449;27;96468;-85
2021/07/27 01:50:16;;;;;;;;;;;;;;;26.20;51.83;100721.63;5052103;28;98904;-84
2021/07/27 01:52:47;;;;;;;;;;;;;;;26.26;51.90;100717.47;5050648;28;99873;-84
2021/07/27 01:55:16;;;;;;;;;;;;;;;26.32;51.31;100722.28;5048516;28;96680;-87
2021/07/27 01:57:47;;;;;;;;;;;;;;;26.17;51.69;100725.50;5045359;28;96621;-88
2021/07/27 02:00:17;;;;;;;;;;;;;;;26.07;52.20;100723.84;5043123;28;98068;-88
2021/07/27 02:02:44;;;;;;;;;;;;;;;26.19;51.78;100734.31;5042719;28;100066;-87
2021/07/27 02:05:15;;;;;;;;;;;;;;;26.11;51.75;100736.97;5043666;28;96575;-87
2021/07/27 02:07:47;;;;;;;;;;;;;;;26.25;51.59;100732.88;5037393;28;96863;-87
2021/07/27 02:10:15;;;;;;;;;;;;;;;25.94;52.47;100734.22;5040732;28;101054;-87
2021/07/27 02:12:51;;;;;;;;;;;;;;;26.20;51.82;100732.44;5040085;28;99551;-88
2021/07/27 02:15:23;;;;;;;;;;;;;;;26.00;52.65;100731.75;5032601;28;96710;-88
2021/07/27 02:17:51;;;;;;;;;;;;;;;26.04;52.62;100727.75;5042347;28;96717;-88
2021/07/27 02:20:18;;;;;;;;;;;;;;;26.14;51.88;100730.38;5032942;28;100939;-87
2021/07/27 02:22:46;;;;;;;;;;;;;;;25.94;52.57;100734.22;5041796;28;100645;-88
2021/07/27 02:25:13;;;;;;;;;;;;;;;25.91;52.62;100734.53;5032550;28;97093;-88
2021/07/27 02:27:40;;;;;;;;;;;;;;;25.74;53.31;100734.34;5038627;28;96987;-85
2021/07/27 02:30:08;;;;;;;;;;;;;;;25.99;52.67;100721.91;5030303;28;101936;-85
2021/07/27 02:32:37;;;;;;;;;;;;;;;26.16;52.08;100718.38;5037873;28;98828;-85
2021/07/27 02:35:04;;;;;;;;;;;;;;;26.21;51.83;100723.31;5036321;28;97489;-85
2021/07/27 02:37:31;;;;;;;;;;;;;;;26.29;52.06;100712.59;5040202;28;96818;-85
2021/07/27 02:39:58;;;;;;;;;;;;;;;26.36;51.67;100719.09;5020903;28;97682;-85
2021/07/27 02:42:25;;;;;;;;;;;;;;;26.34;51.70;100712.13;5038129;28;101428;-85
2021/07/27 02:47:32;;;;;;;;;;;;;;;26.35;51.85;100725.50;5053319;28;96582;-85
2021/07/27 02:50:01;;;;;;;;;;;;;;;26.39;51.57;100723.34;5042117;28;98980;-85
2021/07/27 02:52:28;;;;;;;;;;;;;;;26.46;51.56;100719.84;5057521;27;98396;-85
2021/07/27 02:54:54;;;;;;;;;;;;;;;26.43;51.80;100717.47;5038780;27;96644;-84
2021/07/27 02:57:20;;;;;;;;;;;;;;;26.30;51.86;100721.56;5051959;27;96854;-85
2021/07/27 02:59:47;;;;;;;;;;;;;;;26.33;52.07;100723.97;5044453;28;98140;-85
2021/07/27 03:02:16;;;;;;;;;;;;;;;26.29;51.89;100723.44;5027809;28;97775;-85
2021/07/27 03:04:42;;;;;;;;;;;;;;;26.28;51.80;100719.00;5044682;28;96854;-85
2021/07/27 03:07:18;;;;;;;;;;;;;;;26.19;52.25;100718.06;5024544;28;96856;-85
2021/07/27 03:10:17;;;;;;;;;;;;;;;26.19;52.24;100719.91;5041965;28;98940;-85
2021/07/27 03:12:32;;;;;;;;;;;;;;;26.15;52.14;100715.81;5040224;28;98656;-85
2021/07/27 03:14:59;;;;;;;;;;;;;;;26.17;52.01;100711.09;5038502;28;96688;-85
2021/07/27 03:17:27;;;;;;;;;;;;;;;26.12;52.34;100726.97;5041006;27;96905;-85
2021/07/27 03:19:55;;;;;;;;;;;;;;;25.99;52.86;100729.22;5042990;28;99833;-85
2021/07/27 03:22:24;;;;;;;;;;;;;;;26.03;52.69;100722.47;5046440;28;99638;-86
2021/07/27 03:24:51;;;;;;;;;;;;;;;26.03;52.35;100722.47;5043680;28;96604;-85
2021/07/27 03:27:18;;;;;;;;;;;;;;;26.07;52.41;100724.72;5059521;27;96579;-85
2021/07/27 03:29:44;;;;;;;;;;;;;;;26.01;52.31;100727.19;5057666;27;99846;-85
2021/07/27 03:32:10;;;;;;;;;;;;;;;26.03;52.52;100722.47;5057390;27;97944;-85
2021/07/27 03:34:37;;;;;;;;;;;;;;;25.96;52.71;100726.81;5050101;27;96140;-84
2021/07/27 03:37:06;;;;;;;;;;;;;;;26.05;52.50;100736.72;5060205;27;96011;-85
2021/07/27 03:39:36;;;;;;;;;;;;;;;26.06;52.27;100728.41;5060930;27;99379;-86
2021/07/27 03:42:02;;;;;;;;;;;;;;;25.99;52.45;100734.63;5053048;27;98059;-85
2021/07/27 03:44:31;;;;;;;;;;;;;;;26.03;52.34;100730.59;5044727;28;96818;-85
2021/07/27 03:47:06;;;;;;;;;;;;;;;26.06;52.47;100738.41;5036581;28;97144;-84
2021/07/27 03:49:33;;;;;;;;;;;;;;;26.09;52.29;100743.53;5056275;27;98153;-84
2021/07/27 03:52:01;;;;;;;;;;;;;;;26.12;52.44;100743.22;5058406;28;98181;-83
2021/07/27 03:54:28;;;;;;;;;;;;;;;25.98;52.83;100743.75;5042218;28;95892;-85
2021/07/27 03:56:57;;;;;;;;;;;;;;;26.07;52.26;100751.78;5028206;28;96806;-85
2021/07/27 03:59:23;;;;;;;;;;;;;;;25.74;53.08;100752.44;5031496;28;98487;-85
2021/07/27 04:01:50;;;;;;;;;;;;;;;25.97;52.92;100751.03;5035116;28;100162;-86
2021/07/27 04:04:18;;;;;;;;;;;;;;;25.79;53.10;100755.56;5045411;28;96695;-86
2021/07/27 04:06:45;;;;;;;;;;;;;;;26.02;52.77;100761.38;5043994;28;97048;-87
2021/07/27 04:09:12;;;;;;;;;;;;;;;25.93;52.57;100765.03;5036307;28;98948;-86
2021/07/27 04:11:39;;;;;;;;;;;;;;;25.89;52.84;100767.16;5050684;28;99199;-88
2021/07/27 04:14:10;;;;;;;;;;;;;;;25.98;52.24;100768.13;5052212;28;96959;-87
2021/07/27 04:16:38;;;;;;;;;;;;;;;25.97;52.25;100769.13;5048905;28;96735;-87
2021/07/27 04:19:04;;;;;;;;;;;;;;;26.07;52.28;100767.19;5029046;28;98552;-86
2021/07/27 04:21:31;;;;;;;;;;;;;;;26.11;52.08;100774.88;5029593;28;97626;-87
2021/07/27 04:24:00;;;;;;;;;;;;;;;26.09;52.03;100785.00;5038476;28;98114;-86
2021/07/27 04:26:28;;;;;;;;;;;;;;;26.14;52.07;100779.09;5037714;28;96798;-85
2021/07/27 04:28:55;;;;;;;;;;;;;;;26.31;51.77;100775.59;5048230;28;100008;-86
2021/07/27 04:31:27;;;;;;;;;;;;;;;26.29;51.33;100782.16;5058548;28;97798;-86
2021/07/27 04:33:53;;;;;;;;;;;;;;;26.39;51.07;100786.50;5056850;28;95934;-86
2021/07/27 04:36:20;;;;;;;;;;;;;;;26.37;51.20;100787.66;5060009;27;96748;-87
2021/07/27 04:38:46;;;;;;;;;;;;;;;26.38;51.27;100792.94;5054613;27;99019;-87
2021/07/27 04:41:13;;;;;;;;;;;;;;;26.51;51.15;100789.84;5038919;28;97699;-87
2021/07/27 04:43:41;;;;;;;;;;;;;;;26.51;51.06;100782.56;5048012;27;97092;-85
2021/07/27 04:46:08;;;;;;;;;;;;;;;26.60;50.74;100783.47;5056346;28;96754;-86
2021/07/27 04:48:39;;;;;;;;;;;;;;;26.70;50.32;100786.94;5045671;28;98887;-85
2021/07/27 04:51:06;;;;;;;;;;;;;;;26.96;49.46;100781.59;5058522;28;98500;-85
2021/07/27 04:53:35;;;;;;;;;;;;;;;26.94;49.88;100794.44;5051928;28;96793;-83
2021/07/27 04:56:03;;;;;;;;;;;;;;;26.75;49.86;100790.03;5051950;28;96657;-84
2021/07/27 04:58:31;;;;;;;;;;;;;;;26.85;49.70;100779.94;5042972;28;97665;-85
2021/07/27 05:01:02;;;;;;;;;;;;;;;26.79;49.57;100794.13;5050779;28;99173;-85
2021/07/27 05:03:29;;;;;;;;;;;;;;;27.08;48.94;100802.00;5048856;28;96546;-86
2021/07/27 05:05:57;;;;;;;;;;;;;;;27.16;48.83;100804.78;5056337;28;96689;-85
2021/07/27 05:08:24;;;;;;;;;;;;;;;27.28;48.39;100806.19;5048917;28;98072;-84
2021/07/27 05:10:50;;;;;;;;;;;;;;;27.41;48.09;100804.91;5028577;28;97659;-85
2021/07/27 05:13:17;;;;;;;;;;;;;;;27.24;47.96;100799.38;5039868;28;96955;-83
2021/07/27 05:15:43;;;;;;;;;;;;;;;27.56;47.56;100800.63;5055802;28;97905;-84
2021/07/27 05:18:11;;;;;;;;;;;;;;;27.46;47.24;100794.41;5056385;28;98508;-85
2021/07/27 05:20:37;;;;;;;;;;;;;;;27.93;46.39;100792.09;5053966;27;96882;-85
2021/07/27 05:23:05;;;;;;;;;;;;;;;28.01;45.78;100794.84;5059059;27;96091;-86
2021/07/27 05:25:33;;;;;;;;;;;;;;;28.08;45.64;100791.28;5048955;28;96616;-87
2021/07/27 05:28:00;;;;;;;;;;;;;;;28.21;45.47;100792.72;5047740;28;96996;-86
2021/07/27 05:30:27;;;;;;;;;;;;;;;28.16;45.22;100797.81;5035830;28;99402;-85
2021/07/27 05:32:55;;;;;;;;;;;;;;;28.28;44.67;100801.91;5015870;28;98484;-85
2021/07/27 05:35:22;;;;;;;;;;;;;;;28.24;45.17;100801.34;5052738;28;96853;-89
2021/07/27 05:37:49;;;;;;;;;;;;;;;28.32;44.78;100803.25;5057435;27;100450;-88
2021/07/27 05:40:33;;;;;;;;;;;;;;;28.49;44.46;100800.38;5036608;27;97958;-89
2021/07/27 05:43:02;;;;;;;;;;;;;;;28.41;44.66;100796.81;5057553;28;96486;-89
2021/07/27 05:48:10;;;;;;;;;;;;;;;28.21;44.87;100809.88;5056052;27;99054;-89
2021/07/27 05:50:36;;;;;;;;;;;;;;;28.51;43.81;100813.78;5047743;28;99859;-84
2021/07/27 05:53:04;;;;;;;;;;;;;;;28.33;43.73;100811.25;5039724;28;96781;-85
2021/07/27 05:55:38;;;;;;;;;;;;;;;28.51;43.55;100819.22;5033200;28;96702;-84
2021/07/27 05:58:06;;;;;;;;;;;;;;;28.37;43.84;100817.16;5036316;28;98956;-83
2021/07/27 06:00:35;;;;;;;;;;;;;;;28.51;43.40;100822.81;5041136;28;99262;-83
2021/07/27 06:03:03;;;;;;;;;;;;;;;28.59;42.88;100816.53;5042469;28;97827;-83
2021/07/27 06:05:30;;;;;;;;;;;;;;;28.81;42.76;100824.06;5038699;28;97196;-83
2021/07/27 06:07:57;;;;;;;;;;;;;;;28.31;43.37;100817.84;5024538;28;98333;-84
2021/07/27 06:10:24;;;;;;;;;;;;;;;28.62;42.68;100827.06;5033976;28;99228;-83
2021/07/27 06:12:50;;;;;;;;;;;;;;;28.96;41.79;100826.06;5028150;28;96680;-84
2021/07/27 06:15:19;;;;;;;;;;;;;;;28.45;42.53;100828.06;5039514;28;97967;-84
2021/07/27 06:17:47;;;;;;;;;;;;;;;28.91;41.51;100822.00;5048836;28;97403;-89
2021/07/27 06:20:14;;;;;;;;;;;;;;;29.70;39.84;100823.88;5046120;28;100000;-84
2021/07/27 06:22:40;;;;;;;;;;;;;;;32.10;35.57;100821.31;5038958;28;96704;-83
2021/07/27 06:25:12;;;;;;;;;;;;;;;33.57;32.51;100832.41;5042391;28;96739;-87
2021/07/27 06:27:52;;;;;;;;;;;;;;;32.31;33.93;100828.75;5041927;28;98982;-89
2021/07/27 06:35:36;;;;;;;;;;;;;;;30.33;37.91;100822.88;5232110;22;98744;-84
2021/07/27 06:38:28;;;;;;;;;;;;;;;30.35;37.77;100822.72;5017673;28;99269;-84
2021/07/27 06:40:55;;;;;;;;;;;;;;;29.70;39.13;100832.06;5016232;28;100734;-84
2021/07/27 06:43:22;;;;;;;;;;;;;;;30.11;37.75;100829.19;5025373;28;97796;-83
2021/07/27 06:48:34;;;;;;;;;;;;;;;30.37;37.63;100821.53;5013204;28;98982;-83
2021/07/27 06:51:12;;;;;;;;;;;;;;;30.46;37.25;100831.31;5024590;28;100673;-87
2021/07/27 06:53:48;;;;;;;;;;;;;;;30.64;37.03;100831.06;5026718;28;96821;-88
2021/07/27 06:56:15;;;;;;;;;;;;;;;30.69;37.50;100830.50;5009627;28;96882;-87
2021/07/27 06:58:42;;;;;;;;;;;;;;;30.89;36.45;100831.72;5024771;27;100408;-88
2021/07/27 07:01:30;;;;;;;;;;;;;;;30.05;36.52;100833.47;5032078;28;98187;-83
2021/07/27 07:04:17;;;;;;;;;;;;;;;29.40;38.09;100846.47;5033940;28;98817;-87
2021/07/27 07:07:10;;;;;;;;;;;;;;;29.91;37.66;100839.63;5055209;27;96576;-86
2021/07/27 07:09:48;;;;;;;;;;;;;;;30.22;37.17;100845.13;5030639;28;97974;-88
2021/07/27 07:12:14;;;;;;;;;;;;;;;30.69;36.74;100853.19;5042469;27;99792;-88
2021/07/27 07:14:42;;;;;;;;;;;;;;;30.83;35.69;100854.28;5032827;27;96769;-88
2021/07/27 07:17:24;;;;;;;;;;;;;;;31.12;35.39;100848.91;5033431;27;96868;-86
2021/07/27 07:19:55;;;;;;;;;;;;;;;30.65;35.48;100849.13;5028426;27;100043;-87
2021/07/27 07:22:38;;;;;;;;;;;;;;;30.84;35.00;100845.91;5015567;27;101008;-87
2021/07/27 07:25:16;;;;;;;;;;;;;;;31.21;34.24;100849.69;5012424;28;96926;-87
2021/07/27 07:27:43;;;;;;;;;;;;;;;30.96;34.39;100849.03;5022693;28;96766;-87
2021/07/27 07:30:10;;;;;;;;;;;;;;;30.99;34.60;100848.66;5023664;27;100740;-86
2021/07/27 07:35:23;;;;;;;;;;;;;;;31.06;34.69;100848.81;5029062;28;96795;-85
2021/07/27 07:37:57;;;;;;;;;;;;;;;31.07;34.99;100845.91;5033899;28;96647;-86
2021/07/27 07:45:52;;;;;;;;;;;;;;;30.94;34.55;100842.06;5027584;28;96766;-85
2021/07/27 07:51:11;;;;;;;;;;;;;;;30.76;34.69;100843.25;5027262;28;99164;-87
2021/07/27 08:02:21;;;;;;;;;;;;;;;31.52;33.83;100839.44;5032074;28;99036;-84
2021/07/27 08:04:48;;;;;;;;;;;;;;;31.66;34.27;100841.38;5056561;22;99869;-87
2021/07/27 08:07:15;;;;;;;;;;;;;;;31.26;34.62;100842.63;5051731;27;96784;-90
2021/07/27 08:12:23;;;;;;;;;;;;;;;31.69;33.96;100842.03;5051396;27;98875;-90
2021/07/27 08:23:12;;;;;;;;;;;;;;;31.50;34.11;100827.03;5056626;27;98990;-88
2021/07/27 08:25:48;;;;;;;;;;;;;;;31.60;34.13;100831.19;5060899;27;100248;-89
2021/07/27 08:39:42;;;;;;;;;;;;;;;32.32;33.14;100828.56;5034797;28;97827;-89
2021/07/27 08:47:33;;;;;;;;;;;;;;;32.44;32.05;100826.16;5040619;28;98705;-85
2021/07/27 08:50:01;;;;;;;;;;;;;;;32.54;32.12;100828.59;5037146;28;96850;-85
2021/07/27 08:52:28;;;;;;;;;;;;;;;32.47;32.63;100838.59;5041129;28;96859;-86
2021/07/27 08:57:43;;;;;;;;;;;;;;;32.54;31.30;100834.91;5042231;27;100637;-89
2021/07/27 09:00:20;;;;;;;;;;;;;;;32.71;31.12;100838.25;5038817;28;109795;-89
2021/07/27 09:03:14;;;;;;;;;;;;;;;32.12;30.89;100843.00;5045770;28;96983;-88
2021/07/27 09:05:48;;;;;;;;;;;;;;;32.47;30.66;100835.88;4996868;28;100851;-87
2021/07/27 09:08:18;;;;;;;;;;;;;;;32.57;30.70;100844.59;5005355;28;98620;-88
2021/07/27 09:10:46;;;;;;;;;;;;;;;32.11;30.74;100847.63;4995647;28;97543;-89
2021/07/27 09:13:16;;;;;;;;;;;;;;;32.19;31.20;100841.22;5002777;28;96934;-82
2021/07/27 09:15:43;;;;;;;;;;;;;;;32.52;30.20;100842.44;4989873;28;97858;-83
2021/07/27 09:18:13;;;;;;;;;;;;;;;32.33;30.29;100843.06;5008113;28;100271;-86
2021/07/27 09:20:40;;;;;;;;;;;;;;;32.04;30.53;100833.88;5005481;28;96557;-87
2021/07/27 09:25:51;;;;;;;;;;;;;;;32.71;29.93;100841.81;5000181;28;99503;-90
2021/07/27 09:28:34;;;;;;;;;;;;;;;32.77;29.96;100834.72;5009530;28;100262;-90
2021/07/27 09:34:11;;;;;;;;;;;;;;;32.41;30.35;100837.50;5014517;28;96729;-86
2021/07/27 09:36:40;;;;;;;;;;;;;;;32.59;30.94;100843.34;5006884;28;97483;-89
2021/07/27 09:39:07;;;;;;;;;;;;;;;32.76;30.73;100849.44;5015990;28;96603;-89
2021/07/27 09:44:54;;;;;;;;;;;;;;;33.46;28.88;100854.91;5014764;27;96080;-89
2021/07/27 09:47:48;;;;;;;;;;;;;;;32.82;29.45;100837.72;5024743;27;98225;-89
2021/07/27 09:50:19;;;;;;;;;;;;;;;32.77;29.82;100838.31;5012604;28;98896;-90
2021/07/27 09:52:46;;;;;;;;;;;;;;;32.62;29.99;100837.50;5016869;27;96324;-90
2021/07/27 09:55:17;;;;;;;;;;;;;;;32.60;30.16;100839.59;5025332;28;96071;-90
2021/07/27 09:57:52;;;;;;;;;;;;;;;32.39;30.83;100837.69;5017892;28;96481;-87
2021/07/27 10:05:54;;;;;;;;;;;;;;;31.25;33.65;100851.84;5010816;28;96932;-88
2021/07/27 10:11:12;;;;;;;;;;;;;;;30.69;36.45;100849.59;5006133;28;98928;-87
2021/07/27 10:16:21;;;;;;;;;;;;;;;31.10;36.10;100855.59;5015494;28;97082;-89
2021/07/27 10:18:47;;;;;;;;;;;;;;;31.13;36.33;100856.06;5000285;28;99328;-82
2021/07/27 10:21:38;;;;;;;;;;;;;;;30.82;35.99;100852.56;4995617;28;99010;-87
2021/07/27 10:24:19;;;;;;;;;;;;;;;30.46;36.87;100846.81;5001360;28;96763;-88
2021/07/27 10:26:50;;;;;;;;;;;;;;;30.92;35.76;100844.97;5001196;28;96777;-88
2021/07/27 10:29:28;;;;;;;;;;;;;;;30.84;35.85;100839.59;5015488;28;99180;-87
2021/07/27 10:31:55;;;;;;;;;;;;;;;31.08;35.03;100847.59;5018842;28;98457;-85
2021/07/27 10:37:14;;;;;;;;;;;;;;;31.61;34.29;100848.44;5013357;28;96276;-86
2021/07/27 10:48:00;;;;;;;;;;;;;;;32.13;32.12;100836.50;5012393;28;96760;-88
2021/07/27 10:58:47;;;;;;;;;;;;;;;31.45;31.37;100821.28;5000764;28;97752;-84
2021/07/27 11:01:14;;;;;;;;;;;;;;;32.18;31.26;100828.59;4991146;28;97801;-81
2021/07/27 11:03:41;;;;;;;;;;;;;;;32.64;30.18;100819.00;5008406;28;97495;-82
2021/07/27 11:06:11;;;;;;;;;;;;;;;32.51;30.65;100820.75;5041963;28;96879;-83
2021/07/27 11:08:39;;;;;;;;;;;;;;;32.59;30.60;100826.94;5046067;27;97995;-84
2021/07/27 11:11:19;;;;;;;;;;;;;;;32.40;30.61;100824.84;5050424;28;101237;-84
2021/07/27 11:13:59;;;;;;;;;;;;;;;32.45;30.75;100825.13;5052224;27;99470;-85
2021/07/27 11:16:27;;;;;;;;;;;;;;;32.25;31.39;100818.59;5045603;28;96828;-83
2021/07/27 11:18:56;;;;;;;;;;;;;;;32.20;30.95;100821.91;5044428;27;97087;-82
2021/07/27 11:24:08;;;;;;;;;;;;;;;31.35;32.31;100832.47;5044447;28;98574;-83
2021/07/27 11:26:37;;;;;;;;;;;;;;;32.28;30.96;100816.31;5050726;28;96722;-86
2021/07/27 11:29:22;;;;;;;;;;;;;;;32.66;30.58;100821.53;5039236;28;96752;-86
2021/07/27 11:31:51;;;;;;;;;;;;;;;31.72;31.60;100826.09;5035640;28;97875;-86
2021/07/27 11:34:29;;;;;;;;;;;;;;;32.19;30.21;100822.94;5036389;28;97832;-83
2021/07/27 11:36:56;;;;;;;;;;;;;;;32.40;29.35;100822.97;5058078;28;96325;-84
2021/07/27 11:39:24;;;;;;;;;;;;;;;32.41;29.75;100818.34;5036816;28;96793;-85
2021/07/27 11:44:38;;;;;;;;;;;;;;;32.47;30.32;100806.63;5034635;28;97163;-85
2021/07/27 11:47:07;;;;;;;;;;;;;;;31.88;30.09;100803.19;5030585;28;96931;-86
2021/07/27 11:49:37;;;;;;;;;;;;;;;32.58;30.04;100808.84;5024762;28;96890;-86
2021/07/27 11:52:05;;;;;;;;;;;;;;;32.49;29.10;100815.50;5051886;27;100337;-83
2021/07/27 11:54:33;;;;;;;;;;;;;;;32.34;28.65;100812.81;5052727;27;100122;-84
2021/07/27 11:57:00;;;;;;;;;;;;;;;32.78;28.32;100815.38;5045221;28;97140;-83
2021/07/27 12:04:53;;;;;;;;;;;;;;;33.80;27.40;100814.88;5038995;27;100031;-84
2021/07/27 12:07:23;;;;;;;;;;;;;;;33.89;27.22;100817.22;5026452;27;96839;-83
2021/07/27 12:09:50;;;;;;;;;;;;;;;34.15;26.76;100808.22;5039553;27;97098;-85
2021/07/27 12:12:18;;;;;;;;;;;;;;;33.98;26.85;100806.91;5038198;27;99523;-85
2021/07/27 12:14:48;;;;;;;;;;;;;;;33.45;27.46;100812.13;5025787;28;99236;-85
2021/07/27 12:20:14;;;;;;;;;;;;;;;33.81;27.65;100805.56;5043181;27;96865;-83
2021/07/27 12:22:45;;;;;;;;;;;;;;;33.53;27.58;100802.91;5046835;28;96953;-84
2021/07/27 12:25:12;;;;;;;;;;;;;;;33.27;28.16;100813.69;5052743;27;101599;-84
2021/07/27 12:27:39;;;;;;;;;;;;;;;33.13;28.33;100815.44;5062989;27;96643;-84
2021/07/27 12:30:12;;;;;;;;;;;;;;;32.98;28.37;100809.22;5060291;27;97343;-83
2021/07/27 12:32:47;;;;;;;;;;;;;;;32.58;29.28;100810.72;5038446;28;98858;-84
2021/07/27 12:35:15;;;;;;;;;;;;;;;32.64;29.23;100807.19;5045288;27;101834;-80
2021/07/27 12:40:26;;;;;;;;;;;;;;;32.28;29.74;100807.28;5047215;27;97176;-84
2021/07/27 12:45:33;;;;;;;;;;;;;;;32.57;29.12;100809.03;5056853;27;99154;-85
2021/07/27 12:47:59;;;;;;;;;;;;;;;32.84;27.87;100805.53;5053996;27;96633;-79
2021/07/27 12:50:27;;;;;;;;;;;;;;;33.15;27.97;100803.22;5047279;28;96876;-85
2021/07/27 12:52:54;;;;;;;;;;;;;;;32.82;28.05;100796.69;5050669;28;96795;-83
2021/07/27 12:55:24;;;;;;;;;;;;;;;33.82;26.65;100793.56;5045106;28;100082;-84
2021/07/27 12:57:50;;;;;;;;;;;;;;;33.76;27.03;100808.94;5047466;27;97606;-86
2021/07/27 13:00:18;;;;;;;;;;;;;;;32.79;27.16;100816.22;5040761;28;96812;-83
2021/07/27 13:02:47;;;;;;;;;;;;;;;33.39;26.79;100806.59;5031058;28;99847;-83
2021/07/27 13:05:14;;;;;;;;;;;;;;;33.80;26.26;100792.94;5050633;28;101210;-86
2021/07/27 13:07:43;;;;;;;;;;;;;;;34.02;26.62;100799.97;5058520;27;96550;-84
2021/07/27 13:10:11;;;;;;;;;;;;;;;33.95;25.84;100799.09;5048172;28;96480;-85
2021/07/27 13:12:41;;;;;;;;;;;;;;;33.78;26.90;100784.91;5058047;27;99545;-86
2021/07/27 13:15:13;;;;;;;;;;;;;;;34.18;26.61;100787.78;5048849;28;99191;-85
2021/07/27 13:17:39;;;;;;;;;;;;;;;34.13;26.32;100782.94;5039609;28;96560;-83
2021/07/27 13:20:08;;;;;;;;;;;;;;;33.94;25.76;100797.41;5037390;27;96872;-84
2021/07/27 13:22:35;;;;;;;;;;;;;;;34.37;25.59;100785.13;5055683;27;98033;-85
2021/07/27 13:25:05;;;;;;;;;;;;;;;35.00;24.45;100785.59;5060403;27;96850;-85
2021/07/27 13:27:32;;;;;;;;;;;;;;;34.38;25.68;100796.94;5050002;27;97746;-81
2021/07/27 13:29:58;;;;;;;;;;;;;;;35.77;23.79;100784.84;5040092;28;96867;-78
2021/07/27 13:32:24;;;;;;;;;;;;;;;35.36;24.01;100792.53;5039834;28;98064;-79
2021/07/27 13:34:51;;;;;;;;;;;;;;;35.36;23.63;100789.78;5040113;28;97697;-82
2021/07/27 13:37:18;;;;;;;;;;;;;;;35.87;23.78;100790.69;5043419;27;96923;-83
2021/07/27 13:39:45;;;;;;;;;;;;;;;35.93;23.15;100795.31;5051218;28;96939;-81
2021/07/27 13:42:26;;;;;;;;;;;;;;;35.66;23.42;100792.84;5044995;27;101539;-81
2021/07/27 13:47:51;;;;;;;;;;;;;;;34.43;25.25;100791.66;5041029;28;97266;-82
2021/07/27 13:50:19;;;;;;;;;;;;;;;34.70;24.43;100795.28;5035322;28;97544;-81
2021/07/27 13:52:46;;;;;;;;;;;;;;;36.07;23.56;100781.50;5037606;28;101038;-80
2021/07/27 13:55:13;;;;;;;;;;;;;;;36.51;22.32;100786.94;5036240;28;100181;-81
2021/07/27 13:57:39;;;;;;;;;;;;;;;37.02;21.74;100780.44;5039305;27;97118;-80
2021/07/27 14:00:07;;;;;;;;;;;;;;;38.22;20.66;100776.06;5033316;28;96860;-81
2021/07/27 14:02:33;;;;;;;;;;;;;;;38.51;20.66;100775.22;5033309;27;99124;-80
2021/07/27 14:05:01;;;;;;;;;;;;;;;38.85;20.12;100786.56;5036148;28;97927;-81
2021/07/27 14:07:28;;;;;;;;;;;;;;;39.59;19.03;100783.06;5030840;28;96832;-81
2021/07/27 14:09:57;;;;;;;;;;;;;;;39.86;18.63;100777.00;5032659;28;97083;-80
2021/07/27 14:12:24;;;;;;;;;;;;;;;40.34;18.09;100787.66;5032163;27;97817;-81
2021/07/27 14:14:50;;;;;;;;;;;;;;;39.13;19.15;100788.63;5036474;28;100410;-80
2021/07/27 14:17:17;;;;;;;;;;;;;;;38.98;19.69;100786.38;5032713;28;97848;-80
2021/07/27 14:19:44;;;;;;;;;;;;;;;38.10;20.81;100795.34;5033463;28;97233;-81
2021/07/27 14:22:13;;;;;;;;;;;;;;;37.14;21.47;100788.81;5033479;28;99588;-80
2021/07/27 14:24:50;;;;;;;;;;;;;;;;;;;;;
2021/07/27 14:27:17;;;;;;;;;;;;;;;39.74;19.24;100777.88;5030240;27;116822;-81
2021/07/27 14:29:44;;;;;;;;;;;;;;;41.26;17.78;100780.66;5035540;28;96919;-81
2021/07/27 14:32:10;;;;;;;;;;;;;;;42.24;16.76;100769.66;5033212;28;97920;-82
2021/07/27 14:34:38;;;;;;;;;;;;;;;41.88;17.14;100765.66;5031145;27;100853;-82
2021/07/27 14:37:05;;;;;;;;;;;;;;;39.79;18.88;100766.94;5031060;27;97029;-77
2021/07/27 14:39:33;;;;;;;;;;;;;;;38.39;20.68;100767.97;5032657;28;97155;-76
2021/07/27 14:42:00;;;;;;;;;;;;;;;37.26;22.27;100767.69;5030007;28;99115;-79
2021/07/27 14:44:27;;;;;;;;;;;;;;;36.75;22.49;100763.31;5031051;27;98875;-79
2021/07/27 14:46:53;;;;;;;;;;;;;;;38.71;20.17;100768.53;5038193;27;97184;-79
2021/07/27 14:49:21;;;;;;;;;;;;;;;43.18;15.67;100767.19;5035106;27;97005;-80
2021/07/27 14:51:47;;;;;;;;;;;;;;;46.86;12.52;100771.75;5031091;28;99320;-79
2021/07/27 14:54:14;;;;;;;;;;;;;;;48.04;11.49;100775.72;5036882;27;99973;-79
2021/07/27 14:56:41;;;;;;;;;;;;;;;48.97;10.81;100767.16;5039069;27;97035;-80
2021/07/27 14:59:08;;;;;;;;;;;;;;;48.50;11.19;100779.50;5043621;27;96933;-82
2021/07/27 15:01:34;;;;;;;;;;;;;;;48.97;10.14;100764.34;5041452;28;99453;-81
2021/07/27 15:04:01;;;;;;;;;;;;;;;49.61;9.89;100775.75;5036675;28;96799;-80
2021/07/27 15:06:27;;;;;;;;;;;;;;;48.02;10.66;100767.59;5040441;28;97387;-82
2021/07/27 15:08:54;;;;;;;;;;;;;;;43.37;14.43;100765.63;5039991;27;97138;-81